sensor_id;sensor_type;location;lat;lon;timestamp;P1;durP1;ratioP1;P2;durP2;ratioP2
6860;SDS011;3469;47.060;15.460;2024-03-08T00:02:04;17.20;;;11.50;;
6860;SDS011;3469;47.060;15.460;2024-03-08T00:04:38;14.97;;;10.87;;
6860;SDS011;3469;47.060;15.460;2024-03-08T00:07:09;15.50;;;10.70;;
6860;SDS011;3469;47.060;15.460;2024-03-08T00:09:40;16.50;;;10.70;;
6860;SDS011;3469;47.060;15.460;2024-03-08T00:12:10;17.93;;;10.23;;
6860;SDS011;3469;47.060;15.460;2024-03-08T00:14:41;15.00;;;10.20;;
6860;SDS011;3469;47.060;15.460;2024-03-08T00:17:11;14.47;;;10.90;;
6860;SDS011;3469;47.060;15.460;2024-03-08T00:19:45;14.10;;;10.23;;
6860;SDS011;3469;47.060;15.460;2024-03-08T00:22:16;16.00;;;11.00;;
6860;SDS011;3469;47.060;15.460;2024-03-08T00:24:47;16.23;;;10.60;;
6860;SDS011;3469;47.060;15.460;2024-03-08T00:27:17;15.77;;;11.17;;
6860;SDS011;3469;47.060;15.460;2024-03-08T00:29:48;17.93;;;10.50;;
6860;SDS011;3469;47.060;15.460;2024-03-08T00:32:19;14.77;;;10.83;;
6860;SDS011;3469;47.060;15.460;2024-03-08T00:34:53;20.27;;;11.60;;
6860;SDS011;3469;47.060;15.460;2024-03-08T00:37:24;16.70;;;11.30;;
6860;SDS011;3469;47.060;15.460;2024-03-08T00:39:54;17.63;;;10.97;;
6860;SDS011;3469;47.060;15.460;2024-03-08T00:42:24;19.37;;;11.33;;
6860;SDS011;3469;47.060;15.460;2024-03-08T00:44:55;16.07;;;10.60;;
6860;SDS011;3469;47.060;15.460;2024-03-08T00:47:25;16.73;;;10.70;;
6860;SDS011;3469;47.060;15.460;2024-03-08T00:49:58;15.90;;;10.60;;
6860;SDS011;3469;47.060;15.460;2024-03-08T00:52:31;17.30;;;10.63;;
6860;SDS011;3469;47.060;15.460;2024-03-08T00:55:01;16.60;;;10.13;;
6860;SDS011;3469;47.060;15.460;2024-03-08T00:57:32;16.23;;;10.57;;
6860;SDS011;3469;47.060;15.460;2024-03-08T01:00:03;17.73;;;11.13;;
6860;SDS011;3469;47.060;15.460;2024-03-08T01:02:40;16.40;;;10.40;;
6860;SDS011;3469;47.060;15.460;2024-03-08T01:05:13;15.20;;;9.70;;
6860;SDS011;3469;47.060;15.460;2024-03-08T01:07:43;15.60;;;10.20;;
6860;SDS011;3469;47.060;15.460;2024-03-08T01:10:14;14.30;;;9.77;;
6860;SDS011;3469;47.060;15.460;2024-03-08T01:12:44;17.90;;;11.23;;
6860;SDS011;3469;47.060;15.460;2024-03-08T01:15:15;17.50;;;10.30;;
6860;SDS011;3469;47.060;15.460;2024-03-08T01:17:47;14.97;;;10.47;;
6860;SDS011;3469;47.060;15.460;2024-03-08T01:20:20;15.98;;;11.52;;
6860;SDS011;3469;47.060;15.460;2024-03-08T01:22:50;15.47;;;10.50;;
6860;SDS011;3469;47.060;15.460;2024-03-08T01:25:20;18.20;;;11.27;;
6860;SDS011;3469;47.060;15.460;2024-03-08T01:27:51;17.70;;;10.40;;
6860;SDS011;3469;47.060;15.460;2024-03-08T01:30:22;17.25;;;10.48;;
6860;SDS011;3469;47.060;15.460;2024-03-08T01:32:52;18.80;;;10.57;;
6860;SDS011;3469;47.060;15.460;2024-03-08T01:35:25;17.23;;;10.73;;
6860;SDS011;3469;47.060;15.460;2024-03-08T01:37:56;14.73;;;10.53;;
6860;SDS011;3469;47.060;15.460;2024-03-08T01:40:26;15.23;;;10.50;;
6860;SDS011;3469;47.060;15.460;2024-03-08T01:42:57;16.87;;;11.73;;
6860;SDS011;3469;47.060;15.460;2024-03-08T01:45:30;16.27;;;10.15;;
6860;SDS011;3469;47.060;15.460;2024-03-08T01:48:01;15.57;;;10.65;;
6860;SDS011;3469;47.060;15.460;2024-03-08T01:50:34;18.53;;;10.77;;
6860;SDS011;3469;47.060;15.460;2024-03-08T01:53:06;16.43;;;10.93;;
6860;SDS011;3469;47.060;15.460;2024-03-08T01:55:38;15.43;;;11.20;;
6860;SDS011;3469;47.060;15.460;2024-03-08T01:58:09;15.43;;;10.10;;
6860;SDS011;3469;47.060;15.460;2024-03-08T02:00:43;14.47;;;10.53;;
6860;SDS011;3469;47.060;15.460;2024-03-08T02:03:14;20.37;;;10.20;;
6860;SDS011;3469;47.060;15.460;2024-03-08T02:05:47;17.08;;;12.02;;
6860;SDS011;3469;47.060;15.460;2024-03-08T02:08:18;16.40;;;10.90;;
6860;SDS011;3469;47.060;15.460;2024-03-08T02:10:49;19.88;;;11.48;;
6860;SDS011;3469;47.060;15.460;2024-03-08T02:13:20;14.05;;;10.50;;
6860;SDS011;3469;47.060;15.460;2024-03-08T02:15:51;16.87;;;11.17;;
6860;SDS011;3469;47.060;15.460;2024-03-08T02:18:23;20.40;;;12.10;;
6860;SDS011;3469;47.060;15.460;2024-03-08T02:20:57;20.33;;;12.17;;
6860;SDS011;3469;47.060;15.460;2024-03-08T02:23:28;16.85;;;10.75;;
6860;SDS011;3469;47.060;15.460;2024-03-08T02:25:58;17.05;;;11.50;;
6860;SDS011;3469;47.060;15.460;2024-03-08T02:28:29;20.90;;;11.80;;
6860;SDS011;3469;47.060;15.460;2024-03-08T02:30:59;15.90;;;12.27;;
6860;SDS011;3469;47.060;15.460;2024-03-08T02:33:29;17.70;;;10.90;;
6860;SDS011;3469;47.060;15.460;2024-03-08T02:36:03;19.37;;;11.00;;
6860;SDS011;3469;47.060;15.460;2024-03-08T02:38:34;18.37;;;13.40;;
6860;SDS011;3469;47.060;15.460;2024-03-08T02:41:06;19.63;;;11.67;;
6860;SDS011;3469;47.060;15.460;2024-03-08T02:43:37;17.80;;;11.43;;
6860;SDS011;3469;47.060;15.460;2024-03-08T02:46:07;17.13;;;11.90;;
6860;SDS011;3469;47.060;15.460;2024-03-08T02:48:37;19.90;;;11.97;;
6860;SDS011;3469;47.060;15.460;2024-03-08T02:51:11;21.65;;;13.63;;
6860;SDS011;3469;47.060;15.460;2024-03-08T02:53:43;20.73;;;12.60;;
6860;SDS011;3469;47.060;15.460;2024-03-08T02:56:15;20.40;;;13.63;;
6860;SDS011;3469;47.060;15.460;2024-03-08T02:58:46;21.53;;;13.80;;
6860;SDS011;3469;47.060;15.460;2024-03-08T03:01:17;22.07;;;13.13;;
6860;SDS011;3469;47.060;15.460;2024-03-08T03:03:47;28.77;;;14.70;;
6860;SDS011;3469;47.060;15.460;2024-03-08T03:06:20;24.10;;;14.40;;
6860;SDS011;3469;47.060;15.460;2024-03-08T03:08:51;21.35;;;13.48;;
6860;SDS011;3469;47.060;15.460;2024-03-08T03:11:21;26.55;;;15.45;;
6860;SDS011;3469;47.060;15.460;2024-03-08T03:13:51;29.03;;;17.63;;
6860;SDS011;3469;47.060;15.460;2024-03-08T03:16:23;30.13;;;16.53;;
6860;SDS011;3469;47.060;15.460;2024-03-08T03:18:54;25.37;;;15.63;;
6860;SDS011;3469;47.060;15.460;2024-03-08T03:21:30;24.43;;;16.23;;
6860;SDS011;3469;47.060;15.460;2024-03-08T03:24:03;23.80;;;15.03;;
6860;SDS011;3469;47.060;15.460;2024-03-08T03:26:37;19.40;;;13.83;;
6860;SDS011;3469;47.060;15.460;2024-03-08T03:29:08;23.80;;;15.90;;
6860;SDS011;3469;47.060;15.460;2024-03-08T03:31:39;22.97;;;13.83;;
6860;SDS011;3469;47.060;15.460;2024-03-08T03:34:12;21.30;;;13.80;;
6860;SDS011;3469;47.060;15.460;2024-03-08T03:36:45;22.70;;;15.00;;
6860;SDS011;3469;47.060;15.460;2024-03-08T03:39:15;21.37;;;13.17;;
6860;SDS011;3469;47.060;15.460;2024-03-08T03:41:47;23.47;;;14.57;;
6860;SDS011;3469;47.060;15.460;2024-03-08T03:44:19;20.63;;;14.03;;
6860;SDS011;3469;47.060;15.460;2024-03-08T03:46:50;19.63;;;13.20;;
6860;SDS011;3469;47.060;15.460;2024-03-08T03:49:21;20.37;;;13.77;;
6860;SDS011;3469;47.060;15.460;2024-03-08T03:51:54;21.47;;;13.97;;
6860;SDS011;3469;47.060;15.460;2024-03-08T03:54:24;21.30;;;14.00;;
6860;SDS011;3469;47.060;15.460;2024-03-08T03:56:57;20.90;;;13.10;;
6860;SDS011;3469;47.060;15.460;2024-03-08T03:59:27;21.75;;;13.88;;
6860;SDS011;3469;47.060;15.460;2024-03-08T04:01:58;25.73;;;13.93;;
6860;SDS011;3469;47.060;15.460;2024-03-08T04:04:29;23.60;;;12.87;;
6860;SDS011;3469;47.060;15.460;2024-03-08T04:07:01;23.60;;;13.07;;
6860;SDS011;3469;47.060;15.460;2024-03-08T04:09:32;25.10;;;13.70;;
6860;SDS011;3469;47.060;15.460;2024-03-08T04:12:05;22.60;;;13.80;;
6860;SDS011;3469;47.060;15.460;2024-03-08T04:14:36;24.50;;;14.03;;
6860;SDS011;3469;47.060;15.460;2024-03-08T04:17:08;21.00;;;13.33;;
6860;SDS011;3469;47.060;15.460;2024-03-08T04:19:39;25.97;;;14.47;;
6860;SDS011;3469;47.060;15.460;2024-03-08T04:22:13;22.17;;;13.90;;
6860;SDS011;3469;47.060;15.460;2024-03-08T04:24:44;22.67;;;12.67;;
6860;SDS011;3469;47.060;15.460;2024-03-08T04:27:14;25.37;;;14.27;;
6860;SDS011;3469;47.060;15.460;2024-03-08T04:29:45;22.83;;;12.73;;
6860;SDS011;3469;47.060;15.460;2024-03-08T04:32:16;23.83;;;13.30;;
6860;SDS011;3469;47.060;15.460;2024-03-08T04:34:47;20.00;;;13.80;;
6860;SDS011;3469;47.060;15.460;2024-03-08T04:37:20;25.50;;;14.03;;
6860;SDS011;3469;47.060;15.460;2024-03-08T04:39:52;20.90;;;13.63;;
6860;SDS011;3469;47.060;15.460;2024-03-08T04:42:22;24.07;;;13.73;;
6860;SDS011;3469;47.060;15.460;2024-03-08T04:44:53;20.67;;;13.18;;
6860;SDS011;3469;47.060;15.460;2024-03-08T04:47:24;21.90;;;12.87;;
6860;SDS011;3469;47.060;15.460;2024-03-08T04:49:55;20.10;;;12.73;;
6860;SDS011;3469;47.060;15.460;2024-03-08T04:52:29;20.90;;;14.10;;
6860;SDS011;3469;47.060;15.460;2024-03-08T04:55:00;21.60;;;13.20;;
6860;SDS011;3469;47.060;15.460;2024-03-08T04:57:31;20.20;;;13.90;;
6860;SDS011;3469;47.060;15.460;2024-03-08T05:00:02;20.77;;;14.00;;
6860;SDS011;3469;47.060;15.460;2024-03-08T05:02:38;17.60;;;13.37;;
6860;SDS011;3469;47.060;15.460;2024-03-08T05:05:09;20.77;;;13.70;;
6860;SDS011;3469;47.060;15.460;2024-03-08T05:07:42;22.67;;;14.67;;
6860;SDS011;3469;47.060;15.460;2024-03-08T05:10:16;19.10;;;13.83;;
6860;SDS011;3469;47.060;15.460;2024-03-08T05:12:47;22.90;;;12.60;;
6860;SDS011;3469;47.060;15.460;2024-03-08T05:15:19;23.37;;;14.23;;
6860;SDS011;3469;47.060;15.460;2024-03-08T05:17:50;22.17;;;14.60;;
6860;SDS011;3469;47.060;15.460;2024-03-08T05:20:23;25.17;;;14.65;;
6860;SDS011;3469;47.060;15.460;2024-03-08T05:22:56;24.70;;;15.50;;
6860;SDS011;3469;47.060;15.460;2024-03-08T05:25:27;25.90;;;14.77;;
6860;SDS011;3469;47.060;15.460;2024-03-08T05:27:58;25.27;;;15.50;;
6860;SDS011;3469;47.060;15.460;2024-03-08T05:30:28;24.17;;;14.70;;
6860;SDS011;3469;47.060;15.460;2024-03-08T05:32:59;22.73;;;13.03;;
6860;SDS011;3469;47.060;15.460;2024-03-08T05:35:29;25.20;;;14.80;;
6860;SDS011;3469;47.060;15.460;2024-03-08T05:38:02;21.13;;;13.90;;
6860;SDS011;3469;47.060;15.460;2024-03-08T05:40:33;29.70;;;17.07;;
6860;SDS011;3469;47.060;15.460;2024-03-08T05:43:04;23.33;;;13.63;;
6860;SDS011;3469;47.060;15.460;2024-03-08T05:45:34;19.23;;;14.00;;
6860;SDS011;3469;47.060;15.460;2024-03-08T05:48:05;27.30;;;16.27;;
6860;SDS011;3469;47.060;15.460;2024-03-08T05:50:39;30.43;;;16.47;;
6860;SDS011;3469;47.060;15.460;2024-03-08T05:53:15;22.80;;;13.40;;
6860;SDS011;3469;47.060;15.460;2024-03-08T05:55:46;25.13;;;15.80;;
6860;SDS011;3469;47.060;15.460;2024-03-08T05:58:17;23.70;;;14.97;;
6860;SDS011;3469;47.060;15.460;2024-03-08T06:00:47;25.23;;;15.07;;
6860;SDS011;3469;47.060;15.460;2024-03-08T06:03:19;24.30;;;15.40;;
6860;SDS011;3469;47.060;15.460;2024-03-08T06:05:49;22.17;;;14.63;;
6860;SDS011;3469;47.060;15.460;2024-03-08T06:08:22;23.40;;;15.43;;
6860;SDS011;3469;47.060;15.460;2024-03-08T06:10:56;26.57;;;15.47;;
6860;SDS011;3469;47.060;15.460;2024-03-08T06:13:29;25.87;;;16.23;;
6860;SDS011;3469;47.060;15.460;2024-03-08T06:16:01;25.87;;;16.33;;
6860;SDS011;3469;47.060;15.460;2024-03-08T06:18:35;26.13;;;15.77;;
6860;SDS011;3469;47.060;15.460;2024-03-08T06:21:06;29.90;;;16.87;;
6860;SDS011;3469;47.060;15.460;2024-03-08T06:23:41;25.80;;;16.77;;
6860;SDS011;3469;47.060;15.460;2024-03-08T06:26:11;24.83;;;16.77;;
6860;SDS011;3469;47.060;15.460;2024-03-08T06:28:42;23.07;;;15.20;;
6860;SDS011;3469;47.060;15.460;2024-03-08T06:31:12;24.85;;;16.20;;
6860;SDS011;3469;47.060;15.460;2024-03-08T06:33:42;22.50;;;15.20;;
6860;SDS011;3469;47.060;15.460;2024-03-08T06:36:13;24.50;;;15.70;;
6860;SDS011;3469;47.060;15.460;2024-03-08T06:38:48;33.00;;;15.57;;
6860;SDS011;3469;47.060;15.460;2024-03-08T06:41:19;27.83;;;16.97;;
6860;SDS011;3469;47.060;15.460;2024-03-08T06:43:49;27.60;;;17.07;;
6860;SDS011;3469;47.060;15.460;2024-03-08T06:46:24;26.00;;;16.90;;
6860;SDS011;3469;47.060;15.460;2024-03-08T06:48:55;25.03;;;17.13;;
6860;SDS011;3469;47.060;15.460;2024-03-08T06:51:25;32.03;;;17.10;;
6860;SDS011;3469;47.060;15.460;2024-03-08T06:53:58;26.10;;;16.43;;
6860;SDS011;3469;47.060;15.460;2024-03-08T06:56:36;27.07;;;18.70;;
6860;SDS011;3469;47.060;15.460;2024-03-08T06:59:06;29.97;;;17.43;;
6860;SDS011;3469;47.060;15.460;2024-03-08T07:01:39;25.60;;;15.67;;
6860;SDS011;3469;47.060;15.460;2024-03-08T07:04:10;26.00;;;17.00;;
6860;SDS011;3469;47.060;15.460;2024-03-08T07:06:40;31.13;;;18.63;;
6860;SDS011;3469;47.060;15.460;2024-03-08T07:09:13;28.73;;;16.90;;
6860;SDS011;3469;47.060;15.460;2024-03-08T07:11:43;31.50;;;17.20;;
6860;SDS011;3469;47.060;15.460;2024-03-08T07:14:14;28.87;;;17.97;;
6860;SDS011;3469;47.060;15.460;2024-03-08T07:16:45;25.20;;;17.40;;
6860;SDS011;3469;47.060;15.460;2024-03-08T07:19:15;25.83;;;15.67;;
6860;SDS011;3469;47.060;15.460;2024-03-08T07:21:46;24.03;;;16.70;;
6860;SDS011;3469;47.060;15.460;2024-03-08T07:24:21;26.90;;;16.17;;
6860;SDS011;3469;47.060;15.460;2024-03-08T07:27:06;26.43;;;16.73;;
6860;SDS011;3469;47.060;15.460;2024-03-08T07:29:37;28.00;;;17.03;;
6860;SDS011;3469;47.060;15.460;2024-03-08T07:32:07;26.83;;;18.23;;
6860;SDS011;3469;47.060;15.460;2024-03-08T07:34:47;23.13;;;15.93;;
6860;SDS011;3469;47.060;15.460;2024-03-08T07:37:16;24.70;;;16.80;;
6860;SDS011;3469;47.060;15.460;2024-03-08T07:39:50;27.70;;;16.73;;
6860;SDS011;3469;47.060;15.460;2024-03-08T07:42:20;27.90;;;15.97;;
6860;SDS011;3469;47.060;15.460;2024-03-08T07:44:51;25.17;;;17.33;;
6860;SDS011;3469;47.060;15.460;2024-03-08T07:47:21;31.10;;;18.03;;
6860;SDS011;3469;47.060;15.460;2024-03-08T07:49:53;28.93;;;17.57;;
6860;SDS011;3469;47.060;15.460;2024-03-08T07:52:27;30.30;;;19.70;;
6860;SDS011;3469;47.060;15.460;2024-03-08T07:55:00;30.77;;;19.33;;
6860;SDS011;3469;47.060;15.460;2024-03-08T07:57:33;29.00;;;18.07;;
6860;SDS011;3469;47.060;15.460;2024-03-08T08:00:05;24.23;;;16.67;;
6860;SDS011;3469;47.060;15.460;2024-03-08T08:02:37;25.67;;;17.53;;
6860;SDS011;3469;47.060;15.460;2024-03-08T08:05:08;27.40;;;18.00;;
6860;SDS011;3469;47.060;15.460;2024-03-08T08:07:39;27.10;;;17.10;;
6860;SDS011;3469;47.060;15.460;2024-03-08T08:10:13;26.70;;;18.00;;
6860;SDS011;3469;47.060;15.460;2024-03-08T08:12:48;26.07;;;17.97;;
6860;SDS011;3469;47.060;15.460;2024-03-08T08:15:19;24.40;;;16.70;;
6860;SDS011;3469;47.060;15.460;2024-03-08T08:17:49;24.77;;;16.83;;
6860;SDS011;3469;47.060;15.460;2024-03-08T08:20:20;25.57;;;16.40;;
6860;SDS011;3469;47.060;15.460;2024-03-08T08:22:51;26.27;;;16.50;;
6860;SDS011;3469;47.060;15.460;2024-03-08T08:25:24;26.83;;;17.67;;
6860;SDS011;3469;47.060;15.460;2024-03-08T08:27:55;23.20;;;17.90;;
6860;SDS011;3469;47.060;15.460;2024-03-08T08:30:25;25.30;;;17.23;;
6860;SDS011;3469;47.060;15.460;2024-03-08T08:32:56;28.20;;;17.80;;
6860;SDS011;3469;47.060;15.460;2024-03-08T08:35:28;24.63;;;16.23;;
6860;SDS011;3469;47.060;15.460;2024-03-08T08:37:59;30.13;;;16.23;;
6860;SDS011;3469;47.060;15.460;2024-03-08T08:40:33;25.60;;;15.20;;
6860;SDS011;3469;47.060;15.460;2024-03-08T08:43:04;25.03;;;15.77;;
6860;SDS011;3469;47.060;15.460;2024-03-08T08:45:34;25.13;;;16.93;;
6860;SDS011;3469;47.060;15.460;2024-03-08T08:48:06;25.90;;;16.33;;
6860;SDS011;3469;47.060;15.460;2024-03-08T08:50:37;23.50;;;15.50;;
6860;SDS011;3469;47.060;15.460;2024-03-08T08:53:08;23.90;;;16.47;;
6860;SDS011;3469;47.060;15.460;2024-03-08T08:55:42;20.30;;;15.30;;
6860;SDS011;3469;47.060;15.460;2024-03-08T08:58:12;22.50;;;15.90;;
6860;SDS011;3469;47.060;15.460;2024-03-08T09:00:43;20.37;;;15.40;;
6860;SDS011;3469;47.060;15.460;2024-03-08T09:03:13;19.83;;;14.53;;
6860;SDS011;3469;47.060;15.460;2024-03-08T09:05:44;18.03;;;14.00;;
6860;SDS011;3469;47.060;15.460;2024-03-08T09:08:14;20.77;;;14.67;;
6860;SDS011;3469;47.060;15.460;2024-03-08T09:10:47;21.50;;;13.53;;
6860;SDS011;3469;47.060;15.460;2024-03-08T09:13:18;22.30;;;15.13;;
6860;SDS011;3469;47.060;15.460;2024-03-08T09:15:56;20.90;;;15.37;;
6860;SDS011;3469;47.060;15.460;2024-03-08T09:18:26;19.27;;;13.80;;
6860;SDS011;3469;47.060;15.460;2024-03-08T09:20:57;19.57;;;12.67;;
6860;SDS011;3469;47.060;15.460;2024-03-08T09:23:27;19.43;;;13.43;;
6860;SDS011;3469;47.060;15.460;2024-03-08T09:26:01;15.63;;;12.37;;
6860;SDS011;3469;47.060;15.460;2024-03-08T09:28:41;18.90;;;12.00;;
6860;SDS011;3469;47.060;15.460;2024-03-08T09:31:12;17.77;;;12.50;;
6860;SDS011;3469;47.060;15.460;2024-03-08T09:33:42;16.23;;;12.00;;
6860;SDS011;3469;47.060;15.460;2024-03-08T09:36:13;15.30;;;11.70;;
6860;SDS011;3469;47.060;15.460;2024-03-08T09:38:44;22.00;;;12.53;;
6860;SDS011;3469;47.060;15.460;2024-03-08T09:41:17;16.20;;;12.17;;
6860;SDS011;3469;47.060;15.460;2024-03-08T09:43:47;16.87;;;11.43;;
6860;SDS011;3469;47.060;15.460;2024-03-08T09:46:18;17.30;;;11.77;;
6860;SDS011;3469;47.060;15.460;2024-03-08T09:48:49;15.93;;;11.80;;
6860;SDS011;3469;47.060;15.460;2024-03-08T09:51:21;15.87;;;11.00;;
6860;SDS011;3469;47.060;15.460;2024-03-08T09:53:51;15.90;;;10.83;;
6860;SDS011;3469;47.060;15.460;2024-03-08T09:56:25;18.50;;;10.87;;
6860;SDS011;3469;47.060;15.460;2024-03-08T09:58:57;15.60;;;11.80;;
6860;SDS011;3469;47.060;15.460;2024-03-08T10:01:57;16.90;;;11.80;;
6860;SDS011;3469;47.060;15.460;2024-03-08T10:04:29;16.30;;;12.53;;
6860;SDS011;3469;47.060;15.460;2024-03-08T10:07:00;14.77;;;11.50;;
6860;SDS011;3469;47.060;15.460;2024-03-08T10:09:31;19.70;;;12.50;;
6860;SDS011;3469;47.060;15.460;2024-03-08T10:12:05;17.17;;;10.93;;
6860;SDS011;3469;47.060;15.460;2024-03-08T10:14:38;15.73;;;11.37;;
6860;SDS011;3469;47.060;15.460;2024-03-08T10:17:10;15.70;;;12.53;;
6860;SDS011;3469;47.060;15.460;2024-03-08T10:19:49;17.03;;;11.00;;
6860;SDS011;3469;47.060;15.460;2024-03-08T10:22:20;14.50;;;10.93;;
6860;SDS011;3469;47.060;15.460;2024-03-08T10:24:51;11.27;;;8.70;;
6860;SDS011;3469;47.060;15.460;2024-03-08T10:27:23;11.00;;;8.57;;
6860;SDS011;3469;47.060;15.460;2024-03-08T10:29:54;10.50;;;8.00;;
6860;SDS011;3469;47.060;15.460;2024-03-08T10:32:26;12.43;;;9.70;;
6860;SDS011;3469;47.060;15.460;2024-03-08T10:34:56;11.87;;;8.37;;
6860;SDS011;3469;47.060;15.460;2024-03-08T10:37:27;10.67;;;8.93;;
6860;SDS011;3469;47.060;15.460;2024-03-08T10:40:02;10.87;;;7.73;;
6860;SDS011;3469;47.060;15.460;2024-03-08T10:42:43;12.00;;;8.53;;
6860;SDS011;3469;47.060;15.460;2024-03-08T10:45:25;10.50;;;8.70;;
6860;SDS011;3469;47.060;15.460;2024-03-08T10:48:04;11.23;;;8.43;;
6860;SDS011;3469;47.060;15.460;2024-03-08T10:50:43;11.60;;;9.20;;
6860;SDS011;3469;47.060;15.460;2024-03-08T10:53:17;10.73;;;8.77;;
6860;SDS011;3469;47.060;15.460;2024-03-08T10:55:48;10.80;;;8.30;;
6860;SDS011;3469;47.060;15.460;2024-03-08T10:58:23;14.20;;;10.30;;
6860;SDS011;3469;47.060;15.460;2024-03-08T11:00:55;10.20;;;8.60;;
6860;SDS011;3469;47.060;15.460;2024-03-08T11:06:16;12.07;;;9.47;;
6860;SDS011;3469;47.060;15.460;2024-03-08T11:08:50;12.00;;;8.60;;
6860;SDS011;3469;47.060;15.460;2024-03-08T11:11:26;14.10;;;9.50;;
6860;SDS011;3469;47.060;15.460;2024-03-08T11:14:04;13.70;;;9.83;;
6860;SDS011;3469;47.060;15.460;2024-03-08T11:16:38;11.03;;;8.13;;
6860;SDS011;3469;47.060;15.460;2024-03-08T11:19:23;10.83;;;7.80;;
6860;SDS011;3469;47.060;15.460;2024-03-08T11:21:59;8.63;;;7.10;;
6860;SDS011;3469;47.060;15.460;2024-03-08T11:24:37;9.33;;;7.33;;
6860;SDS011;3469;47.060;15.460;2024-03-08T11:27:09;7.80;;;6.37;;
6860;SDS011;3469;47.060;15.460;2024-03-08T11:29:42;8.97;;;7.37;;
6860;SDS011;3469;47.060;15.460;2024-03-08T11:32:14;8.97;;;6.83;;
6860;SDS011;3469;47.060;15.460;2024-03-08T11:34:46;11.10;;;7.30;;
6860;SDS011;3469;47.060;15.460;2024-03-08T11:37:19;11.87;;;8.70;;
6860;SDS011;3469;47.060;15.460;2024-03-08T11:39:51;9.40;;;7.63;;
6860;SDS011;3469;47.060;15.460;2024-03-08T11:42:26;9.63;;;7.73;;
6860;SDS011;3469;47.060;15.460;2024-03-08T11:45:00;9.50;;;7.57;;
6860;SDS011;3469;47.060;15.460;2024-03-08T11:47:31;11.80;;;9.17;;
6860;SDS011;3469;47.060;15.460;2024-03-08T11:50:02;11.00;;;8.43;;
6860;SDS011;3469;47.060;15.460;2024-03-08T11:52:37;8.80;;;6.77;;
6860;SDS011;3469;47.060;15.460;2024-03-08T11:55:10;7.83;;;6.70;;
6860;SDS011;3469;47.060;15.460;2024-03-08T11:57:41;8.73;;;7.60;;
6860;SDS011;3469;47.060;15.460;2024-03-08T12:00:18;10.20;;;8.50;;
6860;SDS011;3469;47.060;15.460;2024-03-08T12:03:02;11.20;;;7.20;;
6860;SDS011;3469;47.060;15.460;2024-03-08T12:05:34;8.80;;;6.60;;
6860;SDS011;3469;47.060;15.460;2024-03-08T12:08:05;8.30;;;7.40;;
6860;SDS011;3469;47.060;15.460;2024-03-08T12:10:40;8.27;;;7.27;;
6860;SDS011;3469;47.060;15.460;2024-03-08T12:13:10;8.13;;;6.80;;
6860;SDS011;3469;47.060;15.460;2024-03-08T12:15:44;7.70;;;6.47;;
6860;SDS011;3469;47.060;15.460;2024-03-08T12:18:15;7.50;;;6.20;;
6860;SDS011;3469;47.060;15.460;2024-03-08T12:20:45;7.50;;;6.50;;
6860;SDS011;3469;47.060;15.460;2024-03-08T12:23:17;8.77;;;7.00;;
6860;SDS011;3469;47.060;15.460;2024-03-08T12:25:47;8.50;;;6.73;;
6860;SDS011;3469;47.060;15.460;2024-03-08T12:28:18;8.10;;;7.10;;
6860;SDS011;3469;47.060;15.460;2024-03-08T12:30:52;8.17;;;7.27;;
6860;SDS011;3469;47.060;15.460;2024-03-08T12:33:25;7.87;;;7.07;;
6860;SDS011;3469;47.060;15.460;2024-03-08T12:35:56;7.83;;;7.03;;
6860;SDS011;3469;47.060;15.460;2024-03-08T12:38:28;8.77;;;7.33;;
6860;SDS011;3469;47.060;15.460;2024-03-08T12:40:59;9.70;;;6.83;;
6860;SDS011;3469;47.060;15.460;2024-03-08T12:43:31;15.20;;;8.43;;
6860;SDS011;3469;47.060;15.460;2024-03-08T12:46:04;9.60;;;7.30;;
6860;SDS011;3469;47.060;15.460;2024-03-08T12:48:36;11.37;;;8.67;;
6860;SDS011;3469;47.060;15.460;2024-03-08T12:51:07;11.00;;;6.90;;
6860;SDS011;3469;47.060;15.460;2024-03-08T12:53:37;8.17;;;7.03;;
6860;SDS011;3469;47.060;15.460;2024-03-08T12:56:11;7.50;;;6.47;;
6860;SDS011;3469;47.060;15.460;2024-03-08T12:58:41;10.17;;;8.50;;
6860;SDS011;3469;47.060;15.460;2024-03-08T13:01:14;9.37;;;7.50;;
6860;SDS011;3469;47.060;15.460;2024-03-08T13:03:45;14.30;;;7.40;;
6860;SDS011;3469;47.060;15.460;2024-03-08T13:06:16;8.83;;;7.63;;
6860;SDS011;3469;47.060;15.460;2024-03-08T13:08:48;9.23;;;7.87;;
6860;SDS011;3469;47.060;15.460;2024-03-08T13:11:19;10.50;;;7.87;;
6860;SDS011;3469;47.060;15.460;2024-03-08T13:13:50;10.10;;;8.20;;
6860;SDS011;3469;47.060;15.460;2024-03-08T13:16:25;7.63;;;6.83;;
6860;SDS011;3469;47.060;15.460;2024-03-08T13:18:56;11.50;;;7.60;;
6860;SDS011;3469;47.060;15.460;2024-03-08T13:21:28;10.83;;;8.27;;
6860;SDS011;3469;47.060;15.460;2024-03-08T13:24:00;15.93;;;8.00;;
6860;SDS011;3469;47.060;15.460;2024-03-08T13:26:30;10.83;;;8.07;;
6860;SDS011;3469;47.060;15.460;2024-03-08T13:29:01;8.20;;;6.80;;
6860;SDS011;3469;47.060;15.460;2024-03-08T13:31:37;9.10;;;7.70;;
6860;SDS011;3469;47.060;15.460;2024-03-08T13:34:05;9.53;;;7.97;;
6860;SDS011;3469;47.060;15.460;2024-03-08T13:36:38;9.37;;;6.93;;
6860;SDS011;3469;47.060;15.460;2024-03-08T13:39:11;9.70;;;7.20;;
6860;SDS011;3469;47.060;15.460;2024-03-08T13:41:50;9.67;;;7.20;;
6860;SDS011;3469;47.060;15.460;2024-03-08T13:44:20;10.40;;;8.07;;
6860;SDS011;3469;47.060;15.460;2024-03-08T13:46:55;9.83;;;7.83;;
6860;SDS011;3469;47.060;15.460;2024-03-08T13:49:25;11.83;;;8.17;;
6860;SDS011;3469;47.060;15.460;2024-03-08T13:51:56;10.47;;;8.87;;
6860;SDS011;3469;47.060;15.460;2024-03-08T13:54:27;10.47;;;8.07;;
6860;SDS011;3469;47.060;15.460;2024-03-08T13:56:58;10.20;;;8.57;;
6860;SDS011;3469;47.060;15.460;2024-03-08T13:59:30;10.83;;;8.53;;
6860;SDS011;3469;47.060;15.460;2024-03-08T14:02:04;11.90;;;8.17;;
6860;SDS011;3469;47.060;15.460;2024-03-08T14:04:37;10.03;;;7.80;;
6860;SDS011;3469;47.060;15.460;2024-03-08T14:07:08;11.67;;;8.70;;
6860;SDS011;3469;47.060;15.460;2024-03-08T14:09:40;12.97;;;9.50;;
6860;SDS011;3469;47.060;15.460;2024-03-08T14:12:10;13.23;;;8.80;;
6860;SDS011;3469;47.060;15.460;2024-03-08T14:14:40;11.07;;;8.00;;
6860;SDS011;3469;47.060;15.460;2024-03-08T14:17:14;11.20;;;8.13;;
6860;SDS011;3469;47.060;15.460;2024-03-08T14:19:45;13.50;;;8.60;;
6860;SDS011;3469;47.060;15.460;2024-03-08T14:22:16;10.93;;;9.20;;
6860;SDS011;3469;47.060;15.460;2024-03-08T14:24:47;10.90;;;8.40;;
6860;SDS011;3469;47.060;15.460;2024-03-08T14:27:18;10.13;;;8.57;;
6860;SDS011;3469;47.060;15.460;2024-03-08T14:29:50;15.60;;;9.00;;
6860;SDS011;3469;47.060;15.460;2024-03-08T14:32:24;10.87;;;8.90;;
6860;SDS011;3469;47.060;15.460;2024-03-08T14:34:55;11.20;;;8.17;;
6860;SDS011;3469;47.060;15.460;2024-03-08T14:37:26;11.47;;;8.40;;
6860;SDS011;3469;47.060;15.460;2024-03-08T14:39:56;10.30;;;7.97;;
6860;SDS011;3469;47.060;15.460;2024-03-08T14:42:26;13.80;;;10.00;;
6860;SDS011;3469;47.060;15.460;2024-03-08T14:44:57;11.57;;;8.43;;
6860;SDS011;3469;47.060;15.460;2024-03-08T14:47:31;11.13;;;8.73;;
6860;SDS011;3469;47.060;15.460;2024-03-08T14:50:01;14.40;;;9.77;;
6860;SDS011;3469;47.060;15.460;2024-03-08T14:52:34;12.23;;;9.37;;
6860;SDS011;3469;47.060;15.460;2024-03-08T14:55:07;13.63;;;9.40;;
6860;SDS011;3469;47.060;15.460;2024-03-08T14:57:41;11.77;;;9.13;;
6860;SDS011;3469;47.060;15.460;2024-03-08T15:00:13;12.00;;;9.50;;
6860;SDS011;3469;47.060;15.460;2024-03-08T15:02:56;12.37;;;9.67;;
6860;SDS011;3469;47.060;15.460;2024-03-08T15:05:26;13.43;;;10.20;;
6860;SDS011;3469;47.060;15.460;2024-03-08T15:07:59;12.43;;;8.77;;
6860;SDS011;3469;47.060;15.460;2024-03-08T15:10:38;11.23;;;8.53;;
6860;SDS011;3469;47.060;15.460;2024-03-08T15:13:09;11.40;;;9.63;;